createdAt,value
2017-05-21T00:02:26.374Z,3.94
2017-05-21T00:04:55.433Z,3.78
2017-05-21T00:07:24.488Z,4.26
2017-05-21T00:09:53.539Z,4.46
2017-05-21T00:12:22.584Z,4.00
2017-05-21T00:14:53.525Z,3.70
2017-05-21T00:17:22.627Z,4.20
2017-05-21T00:19:52.237Z,3.82
2017-05-21T00:22:21.293Z,4.16
2017-05-21T00:24:50.415Z,4.30
2017-05-21T00:27:19.499Z,4.06
2017-05-21T00:29:48.547Z,4.30
2017-05-21T00:32:17.606Z,4.44
2017-05-21T00:34:46.654Z,5.12
2017-05-21T00:37:15.712Z,4.76
2017-05-21T00:39:44.784Z,4.72
2017-05-21T00:42:13.872Z,4.82
2017-05-21T00:44:42.934Z,5.00
2017-05-21T00:47:11.999Z,4.92
2017-05-21T00:49:41.030Z,4.32
2017-05-21T00:52:10.123Z,4.70
2017-05-21T00:54:39.181Z,5.40
2017-05-21T00:57:08.241Z,4.14
2017-05-21T00:59:37.301Z,4.56
2017-05-21T01:02:06.402Z,5.12
2017-05-21T01:04:35.494Z,4.78
2017-05-21T01:07:04.867Z,4.02
2017-05-21T01:09:33.940Z,4.50
2017-05-21T01:12:02.230Z,4.90
2017-05-21T01:14:31.344Z,4.56
2017-05-21T01:17:00.388Z,4.64
2017-05-21T01:19:29.444Z,4.52
2017-05-21T01:21:58.501Z,4.74
2017-05-21T01:24:27.584Z,4.30
2017-05-21T01:26:56.646Z,4.74
2017-05-21T01:29:25.700Z,4.42
2017-05-21T01:31:54.957Z,4.12
2017-05-21T01:34:24.586Z,4.64
2017-05-21T01:36:53.658Z,3.82
2017-05-21T01:39:23.039Z,4.22
2017-05-21T01:41:52.301Z,4.76
2017-05-21T01:44:21.349Z,4.62
2017-05-21T01:46:50.492Z,4.18
2017-05-21T01:49:19.538Z,4.28
2017-05-21T01:51:48.617Z,4.22
2017-05-21T01:54:17.656Z,4.64
2017-05-21T01:56:46.717Z,3.90
2017-05-21T01:59:15.772Z,4.66
2017-05-21T02:01:44.833Z,4.40
2017-05-21T02:04:13.905Z,3.90
2017-05-21T02:06:42.942Z,3.58
2017-05-21T02:09:12.022Z,4.28
2017-05-21T02:11:41.086Z,5.08
2017-05-21T02:14:10.609Z,4.34
2017-05-21T02:16:39.667Z,4.56
2017-05-21T02:19:08.716Z,4.46
2017-05-21T02:21:37.763Z,4.80
2017-05-21T02:24:06.861Z,5.22
2017-05-21T02:26:35.902Z,4.50
2017-05-21T02:29:04.997Z,5.34
2017-05-21T02:31:34.054Z,4.52
2017-05-21T02:34:03.139Z,4.74
2017-05-21T02:36:33.027Z,5.26
2017-05-21T02:39:02.082Z,5.30
2017-05-21T02:41:31.169Z,4.68
2017-05-21T02:44:00.270Z,4.84
2017-05-21T02:46:29.347Z,4.94
2017-05-21T02:48:58.409Z,4.90
2017-05-21T02:51:27.621Z,4.90
2017-05-21T02:53:56.666Z,4.88
2017-05-21T02:56:25.737Z,4.80
2017-05-21T02:58:54.827Z,4.54
2017-05-21T03:01:23.881Z,4.90
2017-05-21T03:03:53.002Z,4.52
2017-05-21T03:06:22.058Z,5.20
2017-05-21T03:08:51.126Z,4.70
2017-05-21T03:11:20.196Z,5.08
2017-05-21T03:13:49.248Z,5.26
2017-05-21T03:16:18.308Z,4.46
2017-05-21T03:18:47.441Z,4.66
2017-05-21T03:21:16.481Z,5.38
2017-05-21T03:23:45.516Z,5.36
2017-05-21T03:26:14.570Z,5.62
2017-05-21T03:28:43.634Z,5.16
2017-05-21T03:31:12.721Z,5.20
2017-05-21T03:33:41.776Z,4.58
2017-05-21T03:36:10.834Z,5.50
2017-05-21T03:38:39.886Z,4.70
2017-05-21T03:41:08.978Z,5.36
2017-05-21T03:43:38.036Z,4.54
2017-05-21T03:46:07.115Z,5.22
2017-05-21T03:48:36.201Z,5.38
2017-05-21T03:51:05.448Z,5.48
2017-05-21T03:53:34.495Z,4.98
2017-05-21T03:56:03.560Z,5.30
2017-05-21T03:58:32.603Z,5.08
2017-05-21T04:01:02.187Z,5.50
2017-05-21T04:03:31.238Z,5.82
2017-05-21T04:06:00.280Z,5.20
2017-05-21T04:08:29.351Z,5.80
2017-05-21T04:10:58.426Z,6.20
2017-05-21T04:13:27.499Z,5.72
2017-05-21T04:15:56.545Z,5.58
2017-05-21T04:18:25.597Z,5.86
2017-05-21T04:20:54.674Z,6.06
2017-05-21T04:23:23.740Z,5.62
2017-05-21T04:25:52.822Z,6.66
2017-05-21T04:28:21.884Z,5.42
2017-05-21T04:30:51.674Z,5.22
2017-05-21T04:33:20.720Z,4.88
2017-05-21T04:35:50.468Z,5.40
2017-05-21T04:38:19.500Z,5.50
2017-05-21T04:40:48.643Z,6.18
2017-05-21T04:43:17.696Z,6.10
2017-05-21T04:45:46.737Z,5.14
2017-05-21T04:48:15.815Z,5.18
2017-05-21T04:50:44.857Z,5.60
2017-05-21T04:53:13.913Z,5.50
2017-05-21T04:55:43.027Z,4.50
2017-05-21T04:58:12.073Z,5.12
2017-05-21T05:00:41.139Z,5.20
2017-05-21T05:03:10.321Z,4.24
2017-05-21T05:05:41.556Z,4.66
2017-05-21T05:08:11.427Z,4.30
2017-05-21T05:10:41.664Z,4.02
2017-05-21T05:13:10.725Z,3.94
2017-05-21T05:15:40.214Z,4.24
2017-05-21T05:18:11.078Z,4.02
2017-05-21T05:20:42.230Z,4.12
2017-05-21T05:23:11.595Z,4.02
2017-05-21T05:25:40.653Z,3.88
2017-05-21T05:28:09.740Z,3.82
2017-05-21T05:30:39.825Z,3.60
2017-05-21T05:33:09.018Z,3.66
2017-05-21T05:35:38.207Z,3.86
2017-05-21T05:38:07.297Z,4.00
2017-05-21T05:40:36.384Z,3.20
2017-05-21T05:43:05.486Z,3.84
2017-05-21T05:45:34.619Z,3.04
2017-05-21T05:48:03.645Z,3.46
2017-05-21T05:50:32.732Z,4.24
2017-05-21T05:53:01.022Z,3.56
2017-05-21T05:55:30.089Z,3.20
2017-05-21T05:57:59.174Z,3.12
2017-05-21T06:00:28.241Z,3.40
2017-05-21T06:02:57.297Z,3.34
2017-05-21T06:05:27.520Z,3.60
2017-05-21T06:07:56.976Z,3.16
2017-05-21T06:10:27.560Z,3.42
2017-05-21T06:12:56.611Z,3.16
2017-05-21T06:15:27.866Z,2.82
2017-05-21T06:18:00.088Z,3.00
2017-05-21T06:20:31.254Z,3.12
2017-05-21T06:23:06.965Z,3.00
2017-05-21T06:25:40.476Z,3.14
2017-05-21T06:28:16.765Z,2.70
2017-05-21T06:30:51.313Z,2.90
2017-05-21T06:33:25.266Z,2.50
2017-05-21T06:35:58.287Z,2.30
2017-05-21T06:38:30.705Z,2.40
2017-05-21T06:41:03.269Z,2.70
2017-05-21T06:43:35.484Z,2.32
2017-05-21T06:46:05.996Z,2.30
2017-05-21T06:48:37.690Z,2.70
2017-05-21T06:51:07.633Z,2.10
2017-05-21T06:53:40.067Z,2.48
2017-05-21T06:56:14.517Z,2.64
2017-05-21T06:58:47.506Z,2.62
2017-05-21T07:01:21.472Z,2.48
2017-05-21T07:03:53.986Z,2.10
2017-05-21T07:06:26.745Z,2.40
2017-05-21T07:08:59.945Z,2.64
2017-05-21T07:11:32.469Z,2.42
2017-05-21T07:14:02.623Z,2.46
2017-05-21T07:16:36.568Z,2.30
2017-05-21T07:19:06.728Z,1.98
2017-05-21T07:21:39.219Z,2.78
2017-05-21T07:24:13.543Z,2.52
2017-05-21T07:26:44.176Z,2.46
2017-05-21T07:29:17.243Z,3.46
2017-05-21T07:31:51.770Z,2.16
2017-05-21T07:34:24.263Z,2.32
2017-05-21T07:36:57.565Z,1.90
2017-05-21T07:39:29.105Z,2.10
2017-05-21T07:42:02.326Z,2.20
2017-05-21T07:44:33.572Z,1.86
2017-05-21T07:47:02.653Z,2.28
2017-05-21T07:49:32.457Z,2.12
2017-05-21T07:52:03.166Z,2.56
2017-05-21T07:54:32.212Z,2.46
2017-05-21T07:57:01.691Z,2.12
2017-05-21T07:59:30.769Z,2.20
2017-05-21T08:01:59.839Z,1.70
2017-05-21T08:04:28.887Z,2.02
2017-05-21T08:06:58.316Z,1.86
2017-05-21T08:09:27.402Z,1.74
2017-05-21T08:11:56.469Z,1.64
2017-05-21T08:14:25.541Z,1.54
2017-05-21T08:16:54.600Z,2.12
2017-05-21T08:19:23.669Z,1.60
2017-05-21T08:21:52.735Z,1.82
2017-05-21T08:24:21.811Z,1.76
2017-05-21T08:26:51.117Z,1.68
2017-05-21T08:29:20.277Z,1.92
2017-05-21T08:31:49.364Z,2.18
2017-05-21T08:34:19.046Z,2.10
2017-05-21T08:36:48.168Z,1.68
2017-05-21T08:39:17.237Z,1.52
2017-05-21T08:41:46.287Z,2.24
2017-05-21T08:44:15.373Z,1.90
2017-05-21T08:46:44.452Z,1.60
2017-05-21T08:49:13.525Z,1.90
2017-05-21T08:51:42.601Z,2.20
2017-05-21T08:54:11.982Z,1.58
2017-05-21T08:56:41.412Z,2.00
2017-05-21T08:59:11.008Z,2.02
2017-05-21T09:01:40.758Z,1.88
2017-05-21T09:04:11.254Z,2.22
2017-05-21T09:06:40.684Z,2.32
2017-05-21T09:09:09.986Z,2.30
2017-05-21T09:11:39.383Z,1.96
2017-05-21T09:14:09.067Z,1.80
2017-05-21T09:16:38.202Z,2.44
2017-05-21T09:19:07.265Z,2.46
2017-05-21T09:21:36.313Z,2.54
2017-05-21T09:24:05.398Z,1.98
2017-05-21T09:26:34.449Z,2.26
2017-05-21T09:29:03.567Z,2.12
2017-05-21T09:31:32.635Z,1.82
2017-05-21T09:34:01.682Z,2.00
2017-05-21T09:36:30.773Z,1.50
2017-05-21T09:38:59.859Z,2.32
2017-05-21T09:41:28.937Z,3.36
2017-05-21T09:43:58.181Z,2.42
2017-05-21T09:46:27.227Z,2.28
2017-05-21T09:48:56.307Z,1.96
2017-05-21T09:51:25.349Z,2.12
2017-05-21T09:53:54.441Z,1.56
2017-05-21T09:56:23.513Z,1.30
2017-05-21T09:58:52.568Z,2.06
2017-05-21T10:01:21.685Z,1.80
2017-05-21T10:03:50.793Z,1.70
2017-05-21T10:06:19.860Z,1.60
2017-05-21T10:08:48.937Z,1.78
2017-05-21T10:11:18.007Z,1.66
2017-05-21T10:13:47.086Z,1.26
2017-05-21T10:16:16.188Z,1.62
2017-05-21T10:18:45.324Z,1.60
2017-05-21T10:21:14.385Z,1.30
2017-05-21T10:23:43.795Z,1.50
2017-05-21T10:26:12.853Z,1.80
2017-05-21T10:28:41.932Z,1.50
2017-05-21T10:31:10.990Z,1.90
2017-05-21T10:33:40.112Z,1.60
2017-05-21T10:36:09.569Z,1.62
2017-05-21T10:38:38.663Z,1.44
2017-05-21T10:41:07.814Z,1.32
2017-05-21T10:43:37.028Z,1.28
2017-05-21T10:46:07.329Z,1.42
2017-05-21T10:48:36.390Z,1.38
2017-05-21T10:51:05.467Z,1.38
2017-05-21T10:53:34.532Z,1.38
2017-05-21T10:56:03.625Z,1.34
2017-05-21T10:58:32.711Z,1.32
2017-05-21T11:01:01.901Z,1.30
2017-05-21T11:03:30.980Z,1.50
2017-05-21T11:06:00.054Z,1.30
2017-05-21T11:08:29.142Z,1.66
2017-05-21T11:10:58.207Z,1.64
2017-05-21T11:13:27.279Z,1.64
2017-05-21T11:15:56.378Z,1.28
2017-05-21T11:18:25.450Z,1.30
2017-05-21T11:20:54.524Z,1.80
2017-05-21T11:23:23.587Z,1.60
2017-05-21T11:25:52.656Z,1.58
2017-05-21T11:28:21.708Z,1.40
2017-05-21T11:30:50.872Z,1.48
2017-05-21T11:33:19.973Z,1.40
2017-05-21T11:35:49.045Z,1.10
2017-05-21T11:38:18.095Z,1.32
2017-05-21T11:40:47.197Z,1.04
2017-05-21T11:43:16.328Z,1.30
2017-05-21T11:45:45.387Z,1.70
2017-05-21T11:48:14.523Z,1.68
2017-05-21T11:50:43.596Z,1.34
2017-05-21T11:53:12.645Z,1.20
2017-05-21T11:55:41.720Z,1.04
2017-05-21T11:58:10.796Z,1.48
2017-05-21T12:00:39.875Z,1.90
2017-05-21T12:03:08.957Z,1.40
2017-05-21T12:05:38.029Z,1.50
2017-05-21T12:08:07.112Z,1.56
2017-05-21T12:10:36.208Z,1.22
2017-05-21T12:13:05.291Z,1.54
2017-05-21T12:15:34.331Z,1.98
2017-05-21T12:18:03.905Z,1.34
2017-05-21T12:20:32.957Z,1.50
2017-05-21T12:23:02.025Z,1.40
2017-05-21T12:25:31.074Z,1.40
2017-05-21T12:28:00.134Z,1.34
2017-05-21T12:30:29.229Z,1.30
2017-05-21T12:32:58.294Z,1.24
2017-05-21T12:35:27.349Z,1.44
2017-05-21T12:37:56.579Z,1.70
2017-05-21T12:40:25.667Z,1.28
2017-05-21T12:42:54.725Z,1.30
2017-05-21T12:45:24.221Z,1.44
2017-05-21T12:47:53.273Z,1.40
2017-05-21T12:50:22.326Z,1.60
2017-05-21T12:52:51.420Z,1.20
2017-05-21T12:55:20.543Z,1.22
2017-05-21T12:57:49.628Z,1.22
2017-05-21T13:00:19.028Z,1.88
2017-05-21T13:02:48.145Z,1.18
2017-05-21T13:05:18.288Z,1.38
2017-05-21T13:07:47.352Z,1.64
2017-05-21T13:10:16.413Z,1.56
2017-05-21T13:12:45.534Z,1.64
2017-05-21T13:15:14.757Z,1.62
2017-05-21T13:17:43.827Z,1.50
2017-05-21T13:20:12.924Z,1.84
2017-05-21T13:22:41.990Z,1.86
2017-05-21T13:25:11.048Z,1.90
2017-05-21T13:27:40.126Z,1.68
2017-05-21T13:30:09.533Z,1.84
2017-05-21T13:32:38.591Z,1.60
2017-05-21T13:35:07.663Z,1.60
2017-05-21T13:37:36.717Z,1.64
2017-05-21T13:40:06.212Z,1.90
2017-05-21T13:42:35.588Z,2.08
2017-05-21T13:45:04.657Z,1.72
2017-05-21T13:47:32.957Z,1.84
2017-05-21T13:50:02.029Z,1.72
2017-05-21T13:52:31.097Z,1.40
2017-05-21T13:55:00.224Z,1.78
2017-05-21T13:57:29.279Z,1.78
2017-05-21T13:59:58.361Z,1.84
2017-05-21T14:02:27.431Z,1.80
2017-05-21T14:04:56.485Z,1.60
2017-05-21T14:07:25.556Z,1.64
2017-05-21T14:09:54.631Z,1.80
2017-05-21T14:12:23.684Z,1.62
2017-05-21T14:14:52.764Z,1.70
2017-05-21T14:17:21.813Z,1.60
2017-05-21T14:19:51.952Z,1.56
2017-05-21T14:22:20.281Z,1.98
2017-05-21T14:24:49.353Z,1.30
2017-05-21T14:27:18.429Z,1.68
2017-05-21T14:29:47.486Z,1.66
2017-05-21T14:32:15.806Z,1.88
2017-05-21T14:34:44.862Z,1.36
2017-05-21T14:37:13.933Z,1.60
2017-05-21T14:39:42.224Z,1.64
2017-05-21T14:42:10.525Z,1.72
2017-05-21T14:44:39.584Z,1.54
2017-05-21T14:47:08.704Z,1.60
2017-05-21T14:49:37.780Z,1.42
2017-05-21T14:52:06.081Z,1.60
2017-05-21T14:54:35.498Z,2.00
2017-05-21T14:57:04.584Z,1.72
2017-05-21T14:59:33.818Z,1.46
2017-05-21T15:02:02.908Z,1.72
2017-05-21T15:04:31.974Z,1.60
2017-05-21T15:07:01.028Z,1.88
2017-05-21T15:09:30.097Z,1.58
2017-05-21T15:11:59.179Z,2.00
2017-05-21T15:14:28.973Z,2.00
2017-05-21T15:16:58.024Z,1.70
2017-05-21T15:19:27.096Z,2.30
2017-05-21T15:21:56.143Z,2.16
2017-05-21T15:24:25.198Z,2.64
2017-05-21T15:26:54.545Z,2.20
2017-05-21T15:29:23.603Z,4.34
2017-05-21T15:31:52.676Z,1.86
2017-05-21T15:34:21.729Z,2.64
2017-05-21T15:36:51.312Z,2.48
2017-05-21T15:39:20.369Z,2.18
2017-05-21T15:41:50.077Z,2.00
2017-05-21T15:44:19.143Z,2.50
2017-05-21T15:46:48.250Z,2.20
2017-05-21T15:49:17.325Z,2.04
2017-05-21T15:51:46.379Z,1.98
2017-05-21T15:54:15.644Z,1.94
2017-05-21T15:56:44.704Z,2.16
2017-05-21T15:59:13.804Z,1.78
2017-05-21T16:01:42.866Z,1.54
2017-05-21T16:04:11.933Z,2.16
2017-05-21T16:06:41.025Z,1.48
2017-05-21T16:09:10.123Z,1.88
2017-05-21T16:11:39.178Z,1.60
2017-05-21T16:14:08.245Z,1.88
2017-05-21T16:16:37.315Z,1.74
2017-05-21T16:19:06.397Z,2.22
2017-05-21T16:21:35.761Z,2.42
2017-05-21T16:24:04.833Z,1.98
2017-05-21T16:26:34.640Z,2.06
2017-05-21T16:29:03.718Z,2.30
2017-05-21T16:31:32.800Z,2.48
2017-05-21T16:34:01.866Z,1.88
2017-05-21T16:36:30.942Z,1.76
2017-05-21T16:39:00.000Z,1.86
2017-05-21T16:41:29.066Z,2.10
2017-05-21T16:43:58.157Z,2.20
2017-05-21T16:46:27.225Z,1.98
2017-05-21T16:48:56.316Z,2.10
2017-05-21T16:51:25.371Z,2.58
2017-05-21T16:53:54.460Z,2.22
2017-05-21T16:56:23.826Z,1.90
2017-05-21T16:58:52.881Z,1.92
2017-05-21T17:01:21.952Z,2.10
2017-05-21T17:03:51.009Z,1.96
2017-05-21T17:06:20.069Z,1.86
2017-05-21T17:08:49.154Z,2.16
2017-05-21T17:11:18.355Z,2.02
2017-05-21T17:13:47.410Z,1.98
2017-05-21T17:16:16.649Z,2.28
2017-05-21T17:18:45.718Z,2.08
2017-05-21T17:21:14.814Z,2.12
2017-05-21T17:23:43.887Z,1.68
2017-05-21T17:26:12.965Z,1.80
2017-05-21T17:28:42.060Z,2.10
2017-05-21T17:31:11.216Z,1.80
2017-05-21T17:33:40.312Z,1.50
2017-05-21T17:36:09.757Z,1.64
2017-05-21T17:38:38.833Z,1.60
2017-05-21T17:41:07.982Z,1.86
2017-05-21T17:43:37.037Z,1.94
2017-05-21T17:46:06.381Z,1.92
2017-05-21T17:48:35.445Z,2.06
2017-05-21T17:51:04.533Z,1.92
2017-05-21T17:53:33.821Z,1.88
2017-05-21T17:56:02.893Z,2.00
2017-05-21T17:58:31.997Z,1.90
2017-05-21T18:01:01.076Z,1.92
2017-05-21T18:03:30.195Z,2.00
2017-05-21T18:05:59.553Z,1.74
2017-05-21T18:08:28.855Z,2.04
2017-05-21T18:10:57.987Z,2.30
2017-05-21T18:13:27.047Z,1.68
2017-05-21T18:15:56.173Z,2.30
2017-05-21T18:18:25.239Z,1.76
2017-05-21T18:20:54.369Z,1.92
2017-05-21T18:23:23.487Z,2.10
2017-05-21T18:25:52.545Z,1.88
2017-05-21T18:28:22.577Z,1.80
2017-05-21T18:30:52.232Z,1.86
2017-05-21T18:33:21.344Z,1.88
2017-05-21T18:35:50.583Z,2.76
2017-05-21T18:38:19.681Z,2.34
2017-05-21T18:40:49.126Z,3.34
2017-05-21T18:43:18.229Z,2.82
2017-05-21T18:45:47.327Z,3.50
2017-05-21T18:48:16.413Z,2.80
2017-05-21T18:50:45.515Z,6.94
2017-05-21T18:53:14.582Z,4.30
2017-05-21T18:55:43.634Z,4.54
2017-05-21T18:58:12.711Z,3.24
2017-05-21T19:00:41.983Z,2.52
2017-05-21T19:03:11.079Z,5.52
2017-05-21T19:05:40.168Z,8.96
2017-05-21T19:08:09.689Z,7.18
2017-05-21T19:10:38.757Z,3.80
2017-05-21T19:13:07.869Z,3.30
2017-05-21T19:15:36.965Z,2.86
2017-05-21T19:18:06.051Z,2.08
2017-05-21T19:20:35.364Z,2.58
2017-05-21T19:23:04.445Z,3.10
2017-05-21T19:25:33.505Z,3.12
2017-05-21T19:28:02.582Z,3.16
2017-05-21T19:30:31.638Z,2.94
2017-05-21T19:33:00.701Z,2.72
2017-05-21T19:35:29.759Z,2.76
2017-05-21T19:37:59.701Z,2.98
2017-05-21T19:40:28.761Z,3.04
2017-05-21T19:42:57.845Z,2.58
2017-05-21T19:45:26.933Z,2.88
2017-05-21T19:47:56.249Z,2.84
2017-05-21T19:50:25.336Z,2.88
2017-05-21T19:52:54.434Z,2.60
2017-05-21T19:55:23.497Z,3.20
2017-05-21T19:57:52.597Z,2.94
2017-05-21T20:00:21.709Z,2.84
2017-05-21T20:02:51.024Z,3.02
2017-05-21T20:05:20.116Z,3.60
2017-05-21T20:07:50.632Z,2.58
2017-05-21T20:10:19.725Z,2.88
2017-05-21T20:12:48.996Z,3.22
2017-05-21T20:15:18.071Z,2.88
2017-05-21T20:17:47.250Z,3.14
2017-05-21T20:20:16.347Z,3.70
2017-05-21T20:22:45.421Z,3.26
2017-05-21T20:25:14.485Z,4.12
2017-05-21T20:27:43.556Z,3.96
2017-05-21T20:30:12.638Z,4.20
2017-05-21T20:32:41.684Z,3.88
2017-05-21T20:35:10.766Z,4.00
2017-05-21T20:37:40.087Z,3.82
2017-05-21T20:40:09.174Z,3.74
2017-05-21T20:42:38.249Z,3.70
2017-05-21T20:45:07.476Z,4.66
2017-05-21T20:47:36.559Z,4.38
2017-05-21T20:50:05.754Z,4.10
2017-05-21T20:52:34.825Z,3.74
2017-05-21T20:55:03.887Z,4.00
2017-05-21T20:57:32.941Z,4.28
2017-05-21T21:00:02.980Z,5.22
2017-05-21T21:02:32.032Z,5.24
2017-05-21T21:05:01.154Z,5.22
2017-05-21T21:07:30.215Z,5.30
2017-05-21T21:09:59.257Z,5.42
2017-05-21T21:12:28.325Z,5.14
2017-05-21T21:14:57.440Z,4.90
2017-05-21T21:17:26.496Z,4.44
2017-05-21T21:19:55.569Z,4.72
2017-05-21T21:22:24.634Z,5.00
2017-05-21T21:24:53.719Z,4.48
2017-05-21T21:27:22.782Z,4.30
2017-05-21T21:29:51.881Z,4.00
2017-05-21T21:32:20.935Z,4.36
2017-05-21T21:34:50.002Z,4.60
2017-05-21T21:37:19.064Z,4.68
2017-05-21T21:39:48.120Z,4.48
2017-05-21T21:42:17.438Z,4.14
2017-05-21T21:44:46.521Z,4.18
2017-05-21T21:47:15.753Z,4.68
2017-05-21T21:49:44.812Z,4.36
2017-05-21T21:52:13.885Z,3.54
2017-05-21T21:54:42.935Z,4.00
2017-05-21T21:57:12.314Z,5.26
2017-05-21T21:59:41.370Z,4.90
2017-05-21T22:02:11.245Z,4.76
2017-05-21T22:04:40.332Z,5.02
2017-05-21T22:07:09.408Z,4.94
2017-05-21T22:09:38.466Z,5.16
2017-05-21T22:12:07.538Z,5.06
2017-05-21T22:14:36.603Z,4.04
2017-05-21T22:17:05.685Z,3.82
2017-05-21T22:19:34.746Z,4.28
2017-05-21T22:22:03.820Z,4.62
2017-05-21T22:24:32.921Z,3.74
2017-05-21T22:27:01.984Z,4.08
2017-05-21T22:29:31.043Z,4.24
2017-05-21T22:32:00.101Z,5.12
2017-05-21T22:34:29.147Z,4.98
2017-05-21T22:36:58.216Z,4.78
2017-05-21T22:39:27.258Z,4.36
2017-05-21T22:41:56.345Z,4.86
2017-05-21T22:44:25.397Z,4.88
2017-05-21T22:46:54.511Z,4.90
2017-05-21T22:49:23.562Z,5.22
2017-05-21T22:51:52.608Z,5.88
2017-05-21T22:54:21.663Z,5.60
2017-05-21T22:56:51.241Z,5.02
2017-05-21T22:59:20.334Z,5.66
2017-05-21T23:01:49.406Z,5.38
2017-05-21T23:04:18.466Z,4.76
2017-05-21T23:06:47.972Z,4.72
2017-05-21T23:09:17.026Z,5.12
2017-05-21T23:11:46.100Z,4.64
2017-05-21T23:14:15.208Z,5.18
2017-05-21T23:16:44.244Z,5.80
2017-05-21T23:19:13.296Z,4.90
2017-05-21T23:21:42.379Z,4.74
2017-05-21T23:24:11.732Z,4.20
2017-05-21T23:26:40.783Z,4.68
2017-05-21T23:29:09.835Z,5.20
2017-05-21T23:31:38.916Z,4.94
2017-05-21T23:34:08.245Z,5.66
2017-05-21T23:36:37.315Z,5.30
2017-05-21T23:39:06.407Z,5.22
2017-05-21T23:41:35.469Z,4.72
2017-05-21T23:44:04.520Z,4.72
2017-05-21T23:46:33.570Z,4.48
2017-05-21T23:49:02.617Z,4.52
2017-05-21T23:51:31.669Z,4.42
2017-05-21T23:54:00.746Z,4.96
2017-05-21T23:56:29.819Z,4.92
2017-05-21T23:58:58.900Z,4.72
